createdAt,value
2023-04-09T00:02:02.154Z,17.73
2023-04-09T00:04:28.949Z,18.42
2023-04-09T00:06:55.552Z,18.60
2023-04-09T00:09:22.659Z,18.38
2023-04-09T00:11:49.243Z,18.07
2023-04-09T00:14:16.170Z,17.70
2023-04-09T00:16:42.885Z,17.89
2023-04-09T00:19:09.570Z,18.50
2023-04-09T00:21:36.271Z,18.28
2023-04-09T00:24:03.367Z,18.80
2023-04-09T00:26:31.354Z,19.03
2023-04-09T00:28:58.285Z,18.86
2023-04-09T00:31:24.945Z,18.50
2023-04-09T00:33:51.699Z,18.75
2023-04-09T00:36:18.399Z,18.70
2023-04-09T00:38:46.171Z,18.79
2023-04-09T00:41:12.819Z,19.02
2023-04-09T00:43:39.402Z,19.02
2023-04-09T00:46:06.765Z,18.87
2023-04-09T00:48:33.503Z,18.43
2023-04-09T00:51:00.392Z,18.45
2023-04-09T00:53:27.060Z,19.04
2023-04-09T00:55:56.834Z,18.98
2023-04-09T00:58:23.540Z,19.21
2023-04-09T01:00:50.239Z,19.59
2023-04-09T01:03:17.180Z,19.88
2023-04-09T01:05:43.698Z,19.10
2023-04-09T01:08:42.492Z,19.31
2023-04-09T01:11:31.491Z,19.34
2023-04-09T01:14:08.667Z,19.13
2023-04-09T01:16:37.851Z,19.50
2023-04-09T01:19:22.085Z,19.67
2023-04-09T01:21:49.413Z,19.58
2023-04-09T01:24:16.629Z,19.12
2023-04-09T01:27:09.062Z,19.53
2023-04-09T01:29:51.577Z,19.76
2023-04-09T01:32:21.084Z,19.61
2023-04-09T01:34:48.552Z,19.48
2023-04-09T01:37:16.863Z,19.05
2023-04-09T01:39:44.122Z,19.22
2023-04-09T01:42:12.492Z,19.74
2023-04-09T01:44:40.231Z,19.88
2023-04-09T01:47:09.459Z,19.46
2023-04-09T01:49:38.375Z,18.93
2023-04-09T01:52:05.263Z,18.41
2023-04-09T01:54:31.937Z,18.69
2023-04-09T01:57:00.739Z,18.78
2023-04-09T01:59:27.563Z,19.60
2023-04-09T02:02:08.637Z,19.27
2023-04-09T02:04:46.940Z,18.76
2023-04-09T02:07:19.717Z,19.19
2023-04-09T02:09:48.724Z,19.26
2023-04-09T02:12:18.495Z,19.53
2023-04-09T02:14:51.224Z,19.70
2023-04-09T02:17:18.797Z,19.58
2023-04-09T02:19:47.770Z,19.85
2023-04-09T02:22:16.376Z,20.10
2023-04-09T02:24:45.886Z,20.12
2023-04-09T02:27:12.568Z,20.25
2023-04-09T02:29:42.494Z,20.31
2023-04-09T02:32:09.314Z,20.59
2023-04-09T02:34:35.952Z,20.93
2023-04-09T02:37:03.846Z,20.73
2023-04-09T02:39:30.549Z,20.58
2023-04-09T02:41:57.973Z,20.52
2023-04-09T02:44:26.973Z,20.10
2023-04-09T02:46:53.955Z,19.29
2023-04-09T02:49:20.537Z,19.00
2023-04-09T02:51:47.461Z,18.61
2023-04-09T02:54:14.166Z,18.96
2023-04-09T02:56:40.798Z,18.91
2023-04-09T02:59:07.519Z,17.81
2023-04-09T03:01:35.000Z,17.95
2023-04-09T03:04:02.035Z,17.68
2023-04-09T03:06:28.887Z,17.92
2023-04-09T03:08:55.570Z,18.18
2023-04-09T03:11:23.048Z,18.63
2023-04-09T03:13:49.823Z,18.84
2023-04-09T03:16:16.499Z,18.96
2023-04-09T03:18:43.113Z,19.13
2023-04-09T03:21:10.576Z,19.07
2023-04-09T03:23:45.027Z,18.63
2023-04-09T03:26:11.819Z,18.68
2023-04-09T03:28:44.675Z,18.89
2023-04-09T03:31:11.237Z,18.74
2023-04-09T03:33:40.453Z,18.86
2023-04-09T03:36:09.002Z,18.68
2023-04-09T03:38:49.982Z,18.20
2023-04-09T03:41:28.836Z,18.36
2023-04-09T03:43:57.742Z,18.47
2023-04-09T03:46:28.546Z,18.67
2023-04-09T03:48:57.570Z,18.89
2023-04-09T03:51:32.558Z,18.36
2023-04-09T03:54:01.279Z,18.93
2023-04-09T03:56:28.792Z,18.09
2023-04-09T03:58:56.044Z,18.27
2023-04-09T04:01:31.710Z,18.38
2023-04-09T04:04:01.003Z,18.65
2023-04-09T04:06:37.770Z,18.79
2023-04-09T04:09:23.078Z,18.65
2023-04-09T04:11:56.289Z,18.88
2023-04-09T04:14:26.922Z,18.58
2023-04-09T04:17:00.145Z,18.69
2023-04-09T04:19:30.660Z,19.02
2023-04-09T04:21:58.011Z,18.85
2023-04-09T04:24:24.794Z,18.56
2023-04-09T04:26:51.425Z,18.33
2023-04-09T04:29:20.121Z,18.41
2023-04-09T04:32:09.770Z,18.40
2023-04-09T04:34:37.765Z,18.51
2023-04-09T04:37:13.966Z,18.89
2023-04-09T04:39:40.819Z,18.78
2023-04-09T04:42:11.498Z,19.11
2023-04-09T04:44:38.307Z,19.12
2023-04-09T04:47:12.840Z,19.06
2023-04-09T04:49:40.027Z,18.82
2023-04-09T04:52:08.006Z,18.68
2023-04-09T04:54:36.842Z,18.53
2023-04-09T04:57:03.925Z,18.90
2023-04-09T04:59:40.885Z,18.51
2023-04-09T05:02:10.429Z,18.39
2023-04-09T05:05:09.620Z,18.88
2023-04-09T05:07:44.805Z,18.87
2023-04-09T05:10:11.622Z,18.60
2023-04-09T05:12:41.571Z,18.62
2023-04-09T05:15:10.334Z,18.67
2023-04-09T05:17:38.305Z,18.80
2023-04-09T05:20:08.025Z,18.69
2023-04-09T05:22:52.321Z,19.11
2023-04-09T05:25:34.378Z,19.50
2023-04-09T05:28:02.627Z,19.31
2023-04-09T05:30:31.144Z,19.42
2023-04-09T05:33:01.286Z,19.75
2023-04-09T05:35:28.537Z,19.65
2023-04-09T05:37:56.035Z,19.54
2023-04-09T05:40:22.949Z,19.37
2023-04-09T05:42:50.871Z,19.56
2023-04-09T05:45:37.138Z,19.48
2023-04-09T05:48:04.065Z,19.20
2023-04-09T05:50:34.345Z,19.35
2023-04-09T05:53:05.498Z,17.79
2023-04-09T05:55:38.404Z,18.08
2023-04-09T05:58:05.915Z,19.08
2023-04-09T06:00:33.001Z,18.63
2023-04-09T06:03:00.438Z,18.37
2023-04-09T06:05:28.327Z,18.52
2023-04-09T06:07:55.482Z,18.53
2023-04-09T06:10:22.115Z,19.18
2023-04-09T06:12:49.114Z,19.48
2023-04-09T06:15:16.123Z,19.52
2023-04-09T06:17:42.708Z,20.06
2023-04-09T06:20:09.784Z,21.11
2023-04-09T06:22:36.710Z,21.00
2023-04-09T06:25:03.676Z,20.69
2023-04-09T06:27:30.883Z,20.61
2023-04-09T06:29:57.446Z,21.09
2023-04-09T06:32:24.365Z,20.44
2023-04-09T06:34:51.213Z,20.95
2023-04-09T06:37:18.038Z,19.90
2023-04-09T06:39:54.199Z,20.08
2023-04-09T06:42:26.881Z,19.50
2023-04-09T06:45:08.882Z,19.06
2023-04-09T06:47:37.141Z,19.36
2023-04-09T06:50:04.225Z,18.44
2023-04-09T06:52:30.850Z,18.54
2023-04-09T06:54:57.415Z,18.91
2023-04-09T06:57:23.975Z,19.83
2023-04-09T06:59:50.585Z,19.61
2023-04-09T07:02:17.669Z,19.66
2023-04-09T07:04:44.802Z,18.60
2023-04-09T07:07:12.771Z,18.75
2023-04-09T07:09:39.637Z,19.21
2023-04-09T07:12:06.472Z,18.86
2023-04-09T07:14:33.245Z,18.61
2023-04-09T07:17:02.356Z,18.85
2023-04-09T07:19:31.048Z,18.91
2023-04-09T07:21:57.764Z,19.79
2023-04-09T07:24:24.505Z,19.73
2023-04-09T07:26:52.508Z,19.54
2023-04-09T07:29:20.717Z,19.69
2023-04-09T07:31:47.774Z,20.56
2023-04-09T07:34:14.641Z,20.74
2023-04-09T07:36:42.855Z,20.83
2023-04-09T07:39:09.672Z,20.02
2023-04-09T07:41:37.539Z,19.86
2023-04-09T07:44:06.289Z,20.11
2023-04-09T07:46:33.309Z,20.18
2023-04-09T07:49:02.436Z,20.46
2023-04-09T07:51:29.073Z,19.96
2023-04-09T07:53:55.826Z,20.03
2023-04-09T07:56:22.899Z,20.57
2023-04-09T07:58:50.741Z,19.92
2023-04-09T08:01:17.650Z,20.21
2023-04-09T08:03:46.561Z,20.59
2023-04-09T08:06:13.624Z,20.74
2023-04-09T08:08:40.447Z,20.43
2023-04-09T08:11:07.633Z,20.34
2023-04-09T08:13:34.270Z,21.04
2023-04-09T08:16:02.389Z,21.03
2023-04-09T08:18:31.266Z,21.23
2023-04-09T08:20:58.060Z,20.67
2023-04-09T08:23:24.707Z,20.16
2023-04-09T08:25:51.327Z,20.83
2023-04-09T08:28:18.347Z,20.63
2023-04-09T08:30:44.990Z,22.45
2023-04-09T08:33:11.613Z,22.93
2023-04-09T08:35:41.195Z,22.67
2023-04-09T08:38:07.815Z,22.37
2023-04-09T08:40:36.111Z,22.23
2023-04-09T08:43:06.363Z,22.62
2023-04-09T08:45:33.296Z,23.02
2023-04-09T08:48:03.665Z,22.46
2023-04-09T08:50:36.619Z,23.20
2023-04-09T08:53:04.636Z,24.15
2023-04-09T08:55:31.540Z,23.55
2023-04-09T08:57:59.311Z,23.46
2023-04-09T09:00:28.608Z,22.94
2023-04-09T09:03:13.273Z,23.17
2023-04-09T09:05:45.358Z,21.74
2023-04-09T09:08:26.750Z,22.56
2023-04-09T09:10:53.437Z,23.32
2023-04-09T09:13:30.906Z,23.20
2023-04-09T09:16:14.846Z,24.02
2023-04-09T09:18:44.034Z,24.43
2023-04-09T09:21:15.751Z,23.90
2023-04-09T09:23:43.259Z,23.71
2023-04-09T09:26:13.205Z,23.11
2023-04-09T09:28:40.585Z,24.26
2023-04-09T09:31:12.006Z,23.62
2023-04-09T09:33:39.724Z,23.66
2023-04-09T09:36:06.744Z,22.88
2023-04-09T09:38:50.820Z,22.23
2023-04-09T09:41:18.615Z,22.00
2023-04-09T09:43:45.801Z,22.44
2023-04-09T09:46:12.720Z,22.28
2023-04-09T09:48:39.600Z,21.88
2023-04-09T09:51:11.152Z,22.13
2023-04-09T09:53:39.261Z,21.99
2023-04-09T09:56:07.353Z,21.99
2023-04-09T09:58:41.290Z,21.83
2023-04-09T10:01:11.293Z,21.74
2023-04-09T10:03:39.781Z,21.82
2023-04-09T10:06:07.827Z,21.56
2023-04-09T10:08:36.003Z,21.71
2023-04-09T10:11:04.090Z,22.77
2023-04-09T10:13:52.834Z,23.11
2023-04-09T10:16:23.124Z,23.83
2023-04-09T10:18:50.257Z,23.66
2023-04-09T10:21:47.791Z,23.47
2023-04-09T10:24:16.055Z,22.78
2023-04-09T10:26:46.995Z,23.04
2023-04-09T10:29:15.679Z,23.45
2023-04-09T10:31:52.290Z,24.74
2023-04-09T10:34:26.899Z,23.56
2023-04-09T10:36:57.451Z,24.58
2023-04-09T10:39:29.906Z,25.12
2023-04-09T10:41:58.225Z,23.84
2023-04-09T10:44:31.406Z,23.51
2023-04-09T10:46:58.840Z,23.61
2023-04-09T10:49:27.120Z,23.36
2023-04-09T10:52:13.835Z,23.27
2023-04-09T10:54:46.320Z,23.94
2023-04-09T10:57:24.309Z,23.13
2023-04-09T10:59:55.377Z,24.60
2023-04-09T11:02:38.537Z,24.42
2023-04-09T11:05:17.693Z,24.76
2023-04-09T11:07:48.177Z,25.42
2023-04-09T11:10:15.026Z,24.92
2023-04-09T11:12:42.926Z,25.19
2023-04-09T11:15:19.840Z,23.72
2023-04-09T11:17:47.969Z,23.67
2023-04-09T11:20:16.528Z,23.42
2023-04-09T11:22:43.240Z,23.17
2023-04-09T11:25:09.938Z,23.09
2023-04-09T11:27:38.990Z,22.96
2023-04-09T11:30:06.414Z,23.03
2023-04-09T11:32:34.314Z,24.19
2023-04-09T11:35:01.080Z,25.45
2023-04-09T11:37:27.922Z,25.77
2023-04-09T11:39:57.348Z,26.39
2023-04-09T11:42:27.592Z,24.82
2023-04-09T11:44:54.376Z,24.50
2023-04-09T11:47:21.961Z,24.49
2023-04-09T11:49:51.571Z,24.21
2023-04-09T11:52:19.668Z,24.04
2023-04-09T11:54:49.869Z,23.83
2023-04-09T11:57:17.422Z,23.70
2023-04-09T11:59:44.357Z,23.75
2023-04-09T12:02:11.070Z,24.01
2023-04-09T12:04:37.970Z,24.21
2023-04-09T12:07:15.153Z,24.48
2023-04-09T12:09:49.215Z,23.52
2023-04-09T12:12:23.901Z,23.77
2023-04-09T12:14:53.761Z,23.41
2023-04-09T12:17:21.245Z,23.37
2023-04-09T12:19:49.091Z,22.99
2023-04-09T12:22:16.052Z,23.66
2023-04-09T12:24:42.706Z,23.70
2023-04-09T12:27:10.853Z,24.24
2023-04-09T12:29:37.493Z,24.44
2023-04-09T12:32:05.060Z,25.06
2023-04-09T12:34:32.200Z,25.61
2023-04-09T12:36:59.482Z,24.98
2023-04-09T12:39:26.481Z,24.69
2023-04-09T12:41:54.369Z,24.45
2023-04-09T12:44:21.065Z,24.46
2023-04-09T12:46:47.857Z,24.93
2023-04-09T12:49:14.539Z,25.14
2023-04-09T12:51:41.602Z,25.91
2023-04-09T12:54:08.429Z,25.02
2023-04-09T12:56:35.284Z,24.25
2023-04-09T12:59:02.006Z,24.57
2023-04-09T13:01:28.955Z,23.71
2023-04-09T13:03:55.799Z,23.22
2023-04-09T13:06:22.967Z,22.59
2023-04-09T13:08:49.809Z,22.93
2023-04-09T13:11:16.618Z,22.71
2023-04-09T13:13:43.269Z,23.26
2023-04-09T13:16:09.812Z,23.31
2023-04-09T13:18:37.479Z,23.77
2023-04-09T13:21:04.166Z,24.03
2023-04-09T13:23:30.759Z,24.86
2023-04-09T13:25:57.401Z,24.81
2023-04-09T13:28:24.350Z,23.91
2023-04-09T13:30:51.369Z,24.01
2023-04-09T13:33:18.028Z,24.77
2023-04-09T13:35:45.874Z,25.13
2023-04-09T13:38:14.180Z,24.91
2023-04-09T13:40:41.667Z,24.17
2023-04-09T13:43:08.595Z,24.15
2023-04-09T13:45:35.291Z,24.34
2023-04-09T13:48:02.003Z,24.14
2023-04-09T13:50:29.383Z,23.56
2023-04-09T13:52:56.353Z,23.56
2023-04-09T13:55:22.923Z,23.53
2023-04-09T13:57:50.655Z,24.01
2023-04-09T14:00:17.468Z,24.60
2023-04-09T14:02:44.302Z,24.60
2023-04-09T14:05:11.127Z,24.67
2023-04-09T14:07:37.856Z,24.37
2023-04-09T14:10:04.969Z,23.60
2023-04-09T14:12:32.327Z,23.72
2023-04-09T14:14:59.169Z,23.76
2023-04-09T14:17:26.420Z,23.30
2023-04-09T14:19:52.999Z,23.50
2023-04-09T14:22:19.815Z,23.65
2023-04-09T14:24:47.396Z,23.71
2023-04-09T14:27:14.109Z,23.99
2023-04-09T14:29:40.665Z,24.43
2023-04-09T14:32:07.815Z,25.32
2023-04-09T14:34:34.866Z,25.30
2023-04-09T14:37:01.423Z,25.35
2023-04-09T14:39:28.287Z,25.88
2023-04-09T14:41:57.125Z,25.85
2023-04-09T14:44:26.712Z,26.06
2023-04-09T14:46:55.237Z,25.23
2023-04-09T14:49:23.314Z,25.55
2023-04-09T14:51:50.070Z,25.17
2023-04-09T14:54:16.758Z,25.34
2023-04-09T14:56:43.377Z,24.72
2023-04-09T14:59:10.257Z,23.97
2023-04-09T15:01:37.093Z,23.73
2023-04-09T15:04:04.059Z,23.61
2023-04-09T15:06:32.285Z,23.87
2023-04-09T15:08:58.993Z,23.46
2023-04-09T15:11:30.461Z,23.44
2023-04-09T15:13:58.060Z,23.38
2023-04-09T15:16:28.477Z,23.46
2023-04-09T15:19:05.258Z,23.70
2023-04-09T15:21:33.428Z,24.19
2023-04-09T15:24:00.501Z,24.67
2023-04-09T15:26:27.494Z,23.61
2023-04-09T15:29:07.315Z,23.33
2023-04-09T15:31:34.629Z,23.12
2023-04-09T15:34:01.590Z,23.31
2023-04-09T15:36:32.507Z,23.64
2023-04-09T15:38:59.181Z,23.30
2023-04-09T15:41:26.874Z,23.10
2023-04-09T15:43:53.573Z,22.84
2023-04-09T15:46:21.228Z,23.26
2023-04-09T15:48:48.384Z,22.96
2023-04-09T15:51:16.659Z,23.30
2023-04-09T15:53:43.408Z,23.10
2023-04-09T15:56:15.182Z,22.90
2023-04-09T15:58:43.324Z,23.50
2023-04-09T16:01:10.593Z,22.87
2023-04-09T16:03:41.000Z,23.09
2023-04-09T16:06:14.488Z,23.29
2023-04-09T16:08:41.236Z,23.09
2023-04-09T16:11:08.229Z,23.14
2023-04-09T16:13:35.391Z,22.72
2023-04-09T16:16:01.913Z,22.74
2023-04-09T16:18:28.734Z,22.49
2023-04-09T16:20:57.436Z,22.67
2023-04-09T16:23:26.955Z,22.89
2023-04-09T16:25:53.623Z,22.45
2023-04-09T16:28:22.556Z,22.66
2023-04-09T16:30:55.522Z,22.91
2023-04-09T16:33:22.117Z,22.69
2023-04-09T16:35:48.936Z,22.61
2023-04-09T16:38:15.654Z,22.61
2023-04-09T16:40:43.594Z,22.41
2023-04-09T16:43:10.332Z,22.34
2023-04-09T16:45:37.079Z,22.35
2023-04-09T16:48:06.303Z,22.21
2023-04-09T16:50:33.098Z,22.60
2023-04-09T16:53:01.100Z,22.38
2023-04-09T16:55:29.159Z,22.36
2023-04-09T16:57:56.767Z,22.39
2023-04-09T17:00:23.637Z,22.38
2023-04-09T17:02:51.428Z,21.86
2023-04-09T17:05:19.685Z,21.56
2023-04-09T17:07:46.277Z,21.86
2023-04-09T17:10:13.078Z,22.02
2023-04-09T17:12:39.922Z,21.70
2023-04-09T17:15:07.658Z,21.87
2023-04-09T17:17:34.753Z,21.52
2023-04-09T17:20:01.645Z,21.69
2023-04-09T17:22:28.343Z,21.59
2023-04-09T17:24:54.947Z,21.70
2023-04-09T17:27:21.820Z,21.63
2023-04-09T17:29:48.422Z,21.37
2023-04-09T17:32:15.445Z,21.54
2023-04-09T17:34:43.547Z,21.31
2023-04-09T17:37:10.062Z,21.48
2023-04-09T17:39:37.511Z,21.01
2023-04-09T17:42:05.414Z,20.79
2023-04-09T17:44:35.196Z,20.99
2023-04-09T17:47:05.022Z,20.94
2023-04-09T17:49:32.406Z,20.97
2023-04-09T17:51:59.866Z,20.99
2023-04-09T17:54:26.423Z,20.73
2023-04-09T17:56:53.534Z,20.75
2023-04-09T17:59:20.666Z,20.40
2023-04-09T18:01:47.486Z,20.34
2023-04-09T18:04:15.156Z,20.31
2023-04-09T18:06:42.146Z,20.09
2023-04-09T18:09:08.795Z,20.12
2023-04-09T18:11:35.561Z,19.93
2023-04-09T18:14:07.739Z,20.08
2023-04-09T18:16:38.093Z,20.04
2023-04-09T18:19:08.366Z,19.73
2023-04-09T18:21:37.971Z,19.74
2023-04-09T18:24:05.498Z,19.86
2023-04-09T18:26:33.962Z,19.83
2023-04-09T18:29:01.818Z,19.63
2023-04-09T18:31:29.229Z,19.78
2023-04-09T18:33:56.188Z,19.77
2023-04-09T18:36:23.089Z,19.79
2023-04-09T18:38:49.916Z,19.60
2023-04-09T18:41:23.817Z,19.50
2023-04-09T18:43:51.878Z,19.55
2023-04-09T18:46:18.875Z,19.56
2023-04-09T18:48:47.055Z,19.45
2023-04-09T18:51:14.865Z,19.25
2023-04-09T18:53:42.170Z,19.39
2023-04-09T18:56:09.005Z,19.24
2023-04-09T18:58:36.532Z,19.20
2023-04-09T19:01:12.800Z,18.94
2023-04-09T19:03:40.589Z,18.87
2023-04-09T19:06:14.977Z,18.69
2023-04-09T19:08:41.904Z,18.73
2023-04-09T19:11:08.700Z,18.59
2023-04-09T19:13:36.871Z,18.73
2023-04-09T19:16:04.241Z,18.68
2023-04-09T19:18:31.976Z,18.55
2023-04-09T19:20:58.565Z,18.56
2023-04-09T19:23:27.742Z,18.62
2023-04-09T19:25:55.888Z,18.56
2023-04-09T19:28:23.298Z,18.54
2023-04-09T19:30:52.807Z,18.29
2023-04-09T19:33:27.084Z,18.30
2023-04-09T19:35:55.744Z,18.26
2023-04-09T19:38:22.382Z,18.26
2023-04-09T19:40:49.647Z,18.25
2023-04-09T19:43:16.463Z,18.41
2023-04-09T19:45:43.536Z,18.22
2023-04-09T19:48:10.580Z,18.19
2023-04-09T19:50:38.852Z,18.21
2023-04-09T19:53:06.250Z,18.26
2023-04-09T19:55:34.046Z,18.09
2023-04-09T19:58:00.839Z,18.14
2023-04-09T20:00:28.670Z,18.17
2023-04-09T20:02:55.686Z,17.88
2023-04-09T20:05:23.378Z,18.08
2023-04-09T20:07:52.610Z,17.98
2023-04-09T20:10:19.681Z,17.93
2023-04-09T20:12:50.818Z,17.89
2023-04-09T20:15:20.048Z,17.88
2023-04-09T20:17:50.833Z,17.97
2023-04-09T20:20:20.866Z,18.10
2023-04-09T20:22:55.663Z,18.08
2023-04-09T20:25:24.155Z,17.97
2023-04-09T20:27:54.623Z,17.87
2023-04-09T20:30:21.522Z,17.92
2023-04-09T20:32:49.496Z,17.87
2023-04-09T20:35:16.420Z,17.86
2023-04-09T20:37:43.119Z,17.85
2023-04-09T20:40:11.913Z,17.84
2023-04-09T20:42:40.474Z,17.56
2023-04-09T20:45:08.178Z,17.51
2023-04-09T20:47:34.959Z,17.52
2023-04-09T20:50:02.118Z,17.41
2023-04-09T20:52:29.014Z,17.43
2023-04-09T20:54:57.607Z,17.53
2023-04-09T20:57:24.343Z,17.51
2023-04-09T20:59:50.965Z,17.51
2023-04-09T21:02:17.840Z,17.61
2023-04-09T21:04:44.664Z,17.56
2023-04-09T21:07:11.513Z,17.53
2023-04-09T21:09:38.359Z,17.75
2023-04-09T21:12:04.942Z,17.80
2023-04-09T21:14:31.865Z,17.75
2023-04-09T21:16:58.814Z,17.74
2023-04-09T21:19:25.775Z,17.63
2023-04-09T21:21:52.464Z,17.57
2023-04-09T21:24:19.080Z,17.42
2023-04-09T21:26:51.508Z,17.39
2023-04-09T21:29:21.152Z,17.39
2023-04-09T21:31:49.336Z,17.39
2023-04-09T21:34:16.341Z,17.28
2023-04-09T21:36:44.987Z,17.32
2023-04-09T21:39:12.288Z,17.36
2023-04-09T21:41:39.151Z,17.17
2023-04-09T21:44:08.841Z,17.21
2023-04-09T21:46:37.270Z,17.25
2023-04-09T21:49:04.482Z,17.20
2023-04-09T21:51:33.015Z,17.27
2023-04-09T21:54:07.666Z,17.43
2023-04-09T21:56:35.620Z,17.39
2023-04-09T21:59:02.635Z,17.25
2023-04-09T22:01:34.458Z,17.21
2023-04-09T22:04:03.025Z,17.09
2023-04-09T22:06:29.835Z,17.13
2023-04-09T22:08:57.768Z,17.08
2023-04-09T22:11:29.655Z,17.06
2023-04-09T22:13:57.535Z,16.97
2023-04-09T22:16:24.961Z,17.04
2023-04-09T22:18:52.934Z,16.98
2023-04-09T22:21:19.767Z,17.04
2023-04-09T22:23:46.276Z,17.11
2023-04-09T22:26:13.051Z,16.99
2023-04-09T22:28:39.983Z,17.07
2023-04-09T22:31:09.779Z,17.18
2023-04-09T22:33:36.550Z,17.18
2023-04-09T22:36:03.253Z,17.12
2023-04-09T22:38:30.624Z,17.07
2023-04-09T22:40:57.166Z,16.95
2023-04-09T22:43:24.000Z,16.63
2023-04-09T22:45:52.330Z,16.60
2023-04-09T22:48:19.948Z,16.84
2023-04-09T22:50:47.623Z,16.93
2023-04-09T22:53:18.728Z,16.61
2023-04-09T22:55:52.691Z,16.59
2023-04-09T22:58:19.255Z,16.72
2023-04-09T23:00:47.205Z,16.63
2023-04-09T23:03:14.146Z,16.78
2023-04-09T23:05:41.258Z,16.67
2023-04-09T23:08:08.017Z,16.84
2023-04-09T23:10:34.972Z,16.48
2023-04-09T23:13:02.114Z,16.73
2023-04-09T23:15:28.823Z,16.68
2023-04-09T23:17:56.162Z,16.71
2023-04-09T23:20:23.183Z,16.59
2023-04-09T23:22:50.286Z,16.65
2023-04-09T23:25:17.614Z,16.71
2023-04-09T23:27:44.772Z,16.51
2023-04-09T23:30:16.558Z,16.14
2023-04-09T23:32:44.778Z,16.47
2023-04-09T23:35:11.959Z,16.31
2023-04-09T23:37:39.333Z,16.54
2023-04-09T23:40:07.499Z,16.66
2023-04-09T23:42:34.147Z,16.43
2023-04-09T23:45:04.134Z,16.19
2023-04-09T23:47:36.515Z,15.86
2023-04-09T23:50:06.484Z,15.99
2023-04-09T23:52:37.791Z,15.83
2023-04-09T23:55:08.702Z,15.96
2023-04-09T23:57:35.524Z,15.80
